Digby, Canada
Current Conditions -  °F | °C
As of 11:00 AM on Friday 24 Oct 2014 (Local Time) from CYZX Reporting Station
Drizzle Drizzle  
Wind Chill: 55°   Ceiling: 900
Heat Index: 55°   Visibility: 12mi
Dew Point: 54°   Wind: 12mph
Humidity: 94%   Direction: 60°ENE
Pressure: 29.56"   Gusts: 20mph
Location:  44.6°N, 65.75°W
Report Text: CYZX 241400Z 06010G17KT 12SM -DZ OVC009 13/12 A2956 RMK SF8 WNDY HILL UNAVBL -DZ INTMT SLP012
Loading
Personal Weather Stations






























Interactive Weather Map
Tropical Storm Tracking
New forecast layout! Learn more

10-Day Weather Forecast

Advertisements
Track Severe Weather on mobile